Estrela do Norte, Brazil
Current Conditions -  °F | °C
As of 10:00 PM on Wednesday 26 Nov 2014 (Local Time) from SBBR Reporting Station
Scattered Clouds Scattered Clouds  
Wind Chill: 75°   Ceiling: Unl
Heat Index: 75°   Visibility: 6mi
Dew Point: 63°   Wind: 3mph
Humidity: 65%   Direction: 30°NNE
Pressure: 30.03"   Gusts: NA
Location:  13.87°S, 49.07°W
Report Text: SBBR 270000Z 03003KT 9999 FEW030 SCT080 24/17 Q1017
Loading
Personal Weather Stations






























Interactive Weather Map New forecast layout! Learn more

10-Day Weather Forecast

Advertisements
Track Severe Weather on mobile